Terminal Aerodrome Forecast
Issued by NWS

Home | Current Version | Previous Version | Text Only | Print | Product List | Glossary Off
Versions: 1 2 3 4 5 6 7 8 9 10 11 12 13 14 15 16 17

000
FTUS43 KTOP 171735
TAFMHK
TAF
KMHK 171735Z 1718/1818 04007KT P6SM VCSH SCT007 BKN013
     FM180000 10005KT P6SM VCTS BKN010 BKN020CB
     FM180900 15004KT 3SM -SHRA VCTS OVC007CB=

USA.gov is the U.S. government's official web portal to all federal, state and local government web resources and services.